FNLU

Luanda/Quatro de Fevereiro Airport

Airport
ICAO code
FNLU
IATA Code
LAD
Summary
ICAO Region
AFI
ICAO Territory
Location

Luanda, Luanda

Serving
Luanda
Elevation
243 ft
Coordinates
8° 51' 30" S , 13° 13' 52" E
Metar
FNLU 272100Z 17006KT 140V210 9000 FEW020 27/23 Q1013 NOSIG

Runways

Designator Length Width Surface Rops
7/25 2600 60 ASP Yes/Yes
5/23 3716 45 ASP Yes/Yes

Airport map

Aerial View

SKYbrary Partners:

Safety knowledge contributed by: